sensor_id;sensor_type;location;lat;lon;timestamp;P1;durP1;ratioP1;P2;durP2;ratioP2
31966;SDS011;18496;52.042;6.812;2022-09-09T00:00:34;2.30;;;1.13;;
31966;SDS011;18496;52.042;6.812;2022-09-09T00:02:42;1.70;;;1.00;;
31966;SDS011;18496;52.042;6.812;2022-09-09T00:05:17;3.45;;;1.25;;
31966;SDS011;18496;52.042;6.812;2022-09-09T00:12:31;1.15;;;1.00;;
31966;SDS011;18496;52.042;6.812;2022-09-09T00:15:02;2.97;;;0.90;;
31966;SDS011;18496;52.042;6.812;2022-09-09T00:19:46;4.30;;;0.90;;
31966;SDS011;18496;52.042;6.812;2022-09-09T00:24:08;3.30;;;1.35;;
31966;SDS011;18496;52.042;6.812;2022-09-09T00:26:36;3.38;;;1.50;;
31966;SDS011;18496;52.042;6.812;2022-09-09T00:28:52;3.78;;;1.48;;
31966;SDS011;18496;52.042;6.812;2022-09-09T00:31:07;4.68;;;1.25;;
31966;SDS011;18496;52.042;6.812;2022-09-09T00:33:19;4.68;;;1.27;;
31966;SDS011;18496;52.042;6.812;2022-09-09T00:37:34;4.00;;;1.10;;
31966;SDS011;18496;52.042;6.812;2022-09-09T00:39:42;1.80;;;1.13;;
31966;SDS011;18496;52.042;6.812;2022-09-09T00:44:20;3.97;;;1.08;;
31966;SDS011;18496;52.042;6.812;2022-09-09T00:46:40;2.00;;;1.25;;
31966;SDS011;18496;52.042;6.812;2022-09-09T00:49:02;2.95;;;1.25;;
31966;SDS011;18496;52.042;6.812;2022-09-09T00:51:37;4.32;;;1.02;;
31966;SDS011;18496;52.042;6.812;2022-09-09T00:54:28;1.08;;;0.70;;
31966;SDS011;18496;52.042;6.812;2022-09-09T00:56:42;2.85;;;1.00;;
31966;SDS011;18496;52.042;6.812;2022-09-09T00:59:04;1.55;;;0.70;;
31966;SDS011;18496;52.042;6.812;2022-09-09T01:01:18;3.15;;;0.60;;
31966;SDS011;18496;52.042;6.812;2022-09-09T01:05:53;0.60;;;0.60;;
31966;SDS011;18496;52.042;6.812;2022-09-09T01:08:12;1.25;;;0.73;;
31966;SDS011;18496;52.042;6.812;2022-09-09T01:10:47;3.13;;;0.70;;
31966;SDS011;18496;52.042;6.812;2022-09-09T01:12:53;3.83;;;0.93;;
31966;SDS011;18496;52.042;6.812;2022-09-09T01:17:28;2.10;;;1.13;;
31966;SDS011;18496;52.042;6.812;2022-09-09T01:22:38;1.63;;;1.00;;
31966;SDS011;18496;52.042;6.812;2022-09-09T01:29:39;5.18;;;1.40;;
31966;SDS011;18496;52.042;6.812;2022-09-09T01:31:54;1.40;;;1.13;;
31966;SDS011;18496;52.042;6.812;2022-09-09T01:34:08;2.80;;;0.88;;
31966;SDS011;18496;52.042;6.812;2022-09-09T01:38:54;2.45;;;1.27;;
31966;SDS011;18496;52.042;6.812;2022-09-09T01:40:58;1.40;;;0.93;;
31966;SDS011;18496;52.042;6.812;2022-09-09T01:43:10;2.85;;;1.10;;
31966;SDS011;18496;52.042;6.812;2022-09-09T01:45:14;2.67;;;1.27;;
31966;SDS011;18496;52.042;6.812;2022-09-09T01:47:18;3.05;;;1.27;;
31966;SDS011;18496;52.042;6.812;2022-09-09T01:49:42;1.40;;;1.30;;
31966;SDS011;18496;52.042;6.812;2022-09-09T01:51:55;2.13;;;1.05;;
31966;SDS011;18496;52.042;6.812;2022-09-09T01:54:06;1.98;;;1.27;;
31966;SDS011;18496;52.042;6.812;2022-09-09T02:00:52;1.58;;;1.15;;
31966;SDS011;18496;52.042;6.812;2022-09-09T02:03:10;2.83;;;1.33;;
31966;SDS011;18496;52.042;6.812;2022-09-09T02:05:39;4.28;;;1.15;;
31966;SDS011;18496;52.042;6.812;2022-09-09T02:08:00;1.67;;;1.25;;
31966;SDS011;18496;52.042;6.812;2022-09-09T02:12:50;1.40;;;1.15;;
31966;SDS011;18496;52.042;6.812;2022-09-09T02:15:02;4.35;;;1.70;;
31966;SDS011;18496;52.042;6.812;2022-09-09T02:17:22;1.30;;;1.20;;
31966;SDS011;18496;52.042;6.812;2022-09-09T02:19:47;1.65;;;1.25;;
31966;SDS011;18496;52.042;6.812;2022-09-09T02:22:02;2.63;;;1.30;;
31966;SDS011;18496;52.042;6.812;2022-09-09T02:24:07;1.85;;;1.40;;
31966;SDS011;18496;52.042;6.812;2022-09-09T02:26:19;4.25;;;1.45;;
31966;SDS011;18496;52.042;6.812;2022-09-09T02:28:29;3.00;;;1.98;;
31966;SDS011;18496;52.042;6.812;2022-09-09T02:30:35;5.00;;;1.60;;
31966;SDS011;18496;52.042;6.812;2022-09-09T02:32:43;3.75;;;1.70;;
31966;SDS011;18496;52.042;6.812;2022-09-09T02:34:53;1.90;;;1.60;;
31966;SDS011;18496;52.042;6.812;2022-09-09T02:37:02;2.72;;;1.65;;
31966;SDS011;18496;52.042;6.812;2022-09-09T02:39:10;3.45;;;1.50;;
31966;SDS011;18496;52.042;6.812;2022-09-09T02:41:14;3.47;;;1.48;;
31966;SDS011;18496;52.042;6.812;2022-09-09T02:43:18;2.10;;;1.50;;
31966;SDS011;18496;52.042;6.812;2022-09-09T02:45:26;2.65;;;1.60;;
31966;SDS011;18496;52.042;6.812;2022-09-09T02:47:37;2.38;;;1.55;;
31966;SDS011;18496;52.042;6.812;2022-09-09T02:50:00;2.17;;;1.55;;
31966;SDS011;18496;52.042;6.812;2022-09-09T02:52:20;2.10;;;1.20;;
31966;SDS011;18496;52.042;6.812;2022-09-09T02:54:37;2.97;;;1.88;;
31966;SDS011;18496;52.042;6.812;2022-09-09T02:56:51;2.63;;;1.90;;
31966;SDS011;18496;52.042;6.812;2022-09-09T02:59:02;4.80;;;1.85;;
31966;SDS011;18496;52.042;6.812;2022-09-09T03:01:08;2.45;;;1.40;;
31966;SDS011;18496;52.042;6.812;2022-09-09T03:03:12;1.98;;;1.50;;
31966;SDS011;18496;52.042;6.812;2022-09-09T03:05:16;5.20;;;1.80;;
31966;SDS011;18496;52.042;6.812;2022-09-09T03:07:20;3.47;;;2.17;;
31966;SDS011;18496;52.042;6.812;2022-09-09T03:09:25;2.95;;;1.80;;
31966;SDS011;18496;52.042;6.812;2022-09-09T03:11:33;1.88;;;1.38;;
31966;SDS011;18496;52.042;6.812;2022-09-09T03:13:36;2.25;;;1.73;;
31966;SDS011;18496;52.042;6.812;2022-09-09T03:15:41;2.63;;;1.92;;
31966;SDS011;18496;52.042;6.812;2022-09-09T03:17:50;6.47;;;2.08;;
31966;SDS011;18496;52.042;6.812;2022-09-09T03:19:56;3.80;;;2.53;;
31966;SDS011;18496;52.042;6.812;2022-09-09T03:22:01;3.95;;;2.05;;
31966;SDS011;18496;52.042;6.812;2022-09-09T03:24:08;5.03;;;2.42;;
31966;SDS011;18496;52.042;6.812;2022-09-09T03:26:12;3.45;;;2.30;;
31966;SDS011;18496;52.042;6.812;2022-09-09T03:28:21;4.20;;;2.58;;
31966;SDS011;18496;52.042;6.812;2022-09-09T03:30:27;8.50;;;3.05;;
31966;SDS011;18496;52.042;6.812;2022-09-09T03:32:32;8.32;;;2.78;;
31966;SDS011;18496;52.042;6.812;2022-09-09T03:34:36;4.90;;;2.40;;
31966;SDS011;18496;52.042;6.812;2022-09-09T03:36:43;5.97;;;2.97;;
31966;SDS011;18496;52.042;6.812;2022-09-09T03:38:47;4.03;;;2.80;;
31966;SDS011;18496;52.042;6.812;2022-09-09T03:40:52;6.63;;;2.97;;
31966;SDS011;18496;52.042;6.812;2022-09-09T03:43:01;9.10;;;3.05;;
31966;SDS011;18496;52.042;6.812;2022-09-09T03:45:06;8.23;;;3.78;;
31966;SDS011;18496;52.042;6.812;2022-09-09T03:47:13;6.72;;;3.65;;
31966;SDS011;18496;52.042;6.812;2022-09-09T03:49:16;6.20;;;3.35;;
31966;SDS011;18496;52.042;6.812;2022-09-09T03:51:21;5.75;;;3.90;;
31966;SDS011;18496;52.042;6.812;2022-09-09T03:53:25;8.27;;;3.70;;
31966;SDS011;18496;52.042;6.812;2022-09-09T03:55:29;10.23;;;4.85;;
31966;SDS011;18496;52.042;6.812;2022-09-09T03:57:33;6.03;;;4.18;;
31966;SDS011;18496;52.042;6.812;2022-09-09T03:59:38;7.18;;;4.05;;
31966;SDS011;18496;52.042;6.812;2022-09-09T04:01:42;9.65;;;4.25;;
31966;SDS011;18496;52.042;6.812;2022-09-09T04:03:46;11.45;;;4.35;;
31966;SDS011;18496;52.042;6.812;2022-09-09T04:05:51;9.15;;;4.18;;
31966;SDS011;18496;52.042;6.812;2022-09-09T04:07:55;9.25;;;5.25;;
31966;SDS011;18496;52.042;6.812;2022-09-09T04:09:59;11.20;;;5.00;;
31966;SDS011;18496;52.042;6.812;2022-09-09T04:12:03;9.48;;;4.15;;
31966;SDS011;18496;52.042;6.812;2022-09-09T04:14:08;7.07;;;4.70;;
31966;SDS011;18496;52.042;6.812;2022-09-09T04:16:12;10.10;;;4.90;;
31966;SDS011;18496;52.042;6.812;2022-09-09T04:18:17;6.93;;;4.05;;
31966;SDS011;18496;52.042;6.812;2022-09-09T04:20:20;8.65;;;5.03;;
31966;SDS011;18496;52.042;6.812;2022-09-09T04:22:25;10.48;;;5.07;;
31966;SDS011;18496;52.042;6.812;2022-09-09T04:24:30;11.25;;;4.65;;
31966;SDS011;18496;52.042;6.812;2022-09-09T04:26:36;10.35;;;4.10;;
31966;SDS011;18496;52.042;6.812;2022-09-09T04:28:40;7.38;;;4.53;;
31966;SDS011;18496;52.042;6.812;2022-09-09T04:30:49;9.13;;;3.05;;
31966;SDS011;18496;52.042;6.812;2022-09-09T04:32:53;6.32;;;4.07;;
31966;SDS011;18496;52.042;6.812;2022-09-09T04:34:57;10.35;;;5.18;;
31966;SDS011;18496;52.042;6.812;2022-09-09T04:37:01;10.00;;;4.53;;
31966;SDS011;18496;52.042;6.812;2022-09-09T04:39:05;12.50;;;3.97;;
31966;SDS011;18496;52.042;6.812;2022-09-09T04:41:09;8.80;;;4.00;;
31966;SDS011;18496;52.042;6.812;2022-09-09T04:43:15;7.60;;;4.55;;
31966;SDS011;18496;52.042;6.812;2022-09-09T04:45:20;17.42;;;4.72;;
31966;SDS011;18496;52.042;6.812;2022-09-09T04:47:24;6.90;;;4.70;;
31966;SDS011;18496;52.042;6.812;2022-09-09T04:49:28;9.65;;;4.95;;
31966;SDS011;18496;52.042;6.812;2022-09-09T04:51:34;7.82;;;4.78;;
31966;SDS011;18496;52.042;6.812;2022-09-09T04:53:38;9.23;;;4.55;;
31966;SDS011;18496;52.042;6.812;2022-09-09T04:55:43;8.63;;;4.47;;
31966;SDS011;18496;52.042;6.812;2022-09-09T04:57:47;5.72;;;4.10;;
31966;SDS011;18496;52.042;6.812;2022-09-09T04:59:51;9.30;;;4.38;;
31966;SDS011;18496;52.042;6.812;2022-09-09T05:01:55;8.73;;;4.43;;
31966;SDS011;18496;52.042;6.812;2022-09-09T05:03:59;7.95;;;3.83;;
31966;SDS011;18496;52.042;6.812;2022-09-09T05:06:03;7.38;;;3.95;;
31966;SDS011;18496;52.042;6.812;2022-09-09T05:08:09;9.60;;;4.90;;
31966;SDS011;18496;52.042;6.812;2022-09-09T05:10:12;9.55;;;4.15;;
31966;SDS011;18496;52.042;6.812;2022-09-09T05:12:17;6.38;;;4.68;;
31966;SDS011;18496;52.042;6.812;2022-09-09T05:14:26;14.18;;;5.15;;
31966;SDS011;18496;52.042;6.812;2022-09-09T05:16:31;9.02;;;3.38;;
31966;SDS011;18496;52.042;6.812;2022-09-09T05:18:35;9.85;;;4.38;;
31966;SDS011;18496;52.042;6.812;2022-09-09T05:20:38;11.00;;;4.55;;
31966;SDS011;18496;52.042;6.812;2022-09-09T05:22:42;10.45;;;4.25;;
31966;SDS011;18496;52.042;6.812;2022-09-09T05:24:46;6.53;;;3.50;;
31966;SDS011;18496;52.042;6.812;2022-09-09T05:26:49;12.15;;;3.40;;
31966;SDS011;18496;52.042;6.812;2022-09-09T05:28:54;5.28;;;2.88;;
31966;SDS011;18496;52.042;6.812;2022-09-09T05:30:58;9.60;;;4.00;;
31966;SDS011;18496;52.042;6.812;2022-09-09T05:33:09;12.30;;;4.10;;
31966;SDS011;18496;52.042;6.812;2022-09-09T05:35:12;7.65;;;3.15;;
31966;SDS011;18496;52.042;6.812;2022-09-09T05:37:16;10.55;;;3.25;;
31966;SDS011;18496;52.042;6.812;2022-09-09T05:39:21;8.23;;;4.03;;
31966;SDS011;18496;52.042;6.812;2022-09-09T05:41:25;9.50;;;3.40;;
31966;SDS011;18496;52.042;6.812;2022-09-09T05:43:32;8.38;;;3.17;;
31966;SDS011;18496;52.042;6.812;2022-09-09T05:45:36;9.70;;;3.63;;
31966;SDS011;18496;52.042;6.812;2022-09-09T05:47:39;12.35;;;3.30;;
31966;SDS011;18496;52.042;6.812;2022-09-09T05:49:47;8.55;;;3.28;;
31966;SDS011;18496;52.042;6.812;2022-09-09T05:51:52;6.40;;;3.10;;
31966;SDS011;18496;52.042;6.812;2022-09-09T05:53:57;12.68;;;3.50;;
31966;SDS011;18496;52.042;6.812;2022-09-09T05:56:03;13.88;;;3.45;;
31966;SDS011;18496;52.042;6.812;2022-09-09T05:58:11;8.18;;;2.97;;
31966;SDS011;18496;52.042;6.812;2022-09-09T06:00:14;8.23;;;3.58;;
31966;SDS011;18496;52.042;6.812;2022-09-09T06:02:22;8.68;;;3.20;;
31966;SDS011;18496;52.042;6.812;2022-09-09T06:04:26;8.15;;;2.45;;
31966;SDS011;18496;52.042;6.812;2022-09-09T06:06:31;6.18;;;2.33;;
31966;SDS011;18496;52.042;6.812;2022-09-09T06:08:41;8.38;;;2.85;;
31966;SDS011;18496;52.042;6.812;2022-09-09T06:10:47;8.32;;;3.17;;
31966;SDS011;18496;52.042;6.812;2022-09-09T06:12:52;11.05;;;3.00;;
31966;SDS011;18496;52.042;6.812;2022-09-09T06:14:56;7.78;;;2.17;;
31966;SDS011;18496;52.042;6.812;2022-09-09T06:17:00;5.55;;;2.53;;
31966;SDS011;18496;52.042;6.812;2022-09-09T06:19:07;7.15;;;2.88;;
31966;SDS011;18496;52.042;6.812;2022-09-09T06:21:15;8.43;;;2.60;;
31966;SDS011;18496;52.042;6.812;2022-09-09T06:23:21;4.47;;;2.38;;
31966;SDS011;18496;52.042;6.812;2022-09-09T06:25:25;9.70;;;2.47;;
31966;SDS011;18496;52.042;6.812;2022-09-09T06:27:28;8.18;;;2.80;;
31966;SDS011;18496;52.042;6.812;2022-09-09T06:29:32;6.95;;;2.35;;
31966;SDS011;18496;52.042;6.812;2022-09-09T06:31:35;7.10;;;2.78;;
31966;SDS011;18496;52.042;6.812;2022-09-09T06:34:00;3.38;;;2.15;;
31966;SDS011;18496;52.042;6.812;2022-09-09T06:36:06;3.78;;;2.50;;
31966;SDS011;18496;52.042;6.812;2022-09-09T06:38:13;7.05;;;2.65;;
31966;SDS011;18496;52.042;6.812;2022-09-09T06:40:16;12.90;;;3.22;;
31966;SDS011;18496;52.042;6.812;2022-09-09T06:42:20;7.07;;;2.67;;
31966;SDS011;18496;52.042;6.812;2022-09-09T06:44:33;8.88;;;2.85;;
31966;SDS011;18496;52.042;6.812;2022-09-09T06:46:37;9.15;;;2.97;;
31966;SDS011;18496;52.042;6.812;2022-09-09T06:48:43;10.40;;;3.53;;
31966;SDS011;18496;52.042;6.812;2022-09-09T06:50:49;8.30;;;2.60;;
31966;SDS011;18496;52.042;6.812;2022-09-09T06:52:53;9.35;;;3.13;;
31966;SDS011;18496;52.042;6.812;2022-09-09T06:54:56;9.32;;;2.33;;
31966;SDS011;18496;52.042;6.812;2022-09-09T06:57:02;13.30;;;3.20;;
31966;SDS011;18496;52.042;6.812;2022-09-09T06:59:06;7.63;;;2.35;;
31966;SDS011;18496;52.042;6.812;2022-09-09T07:01:13;8.25;;;2.40;;
31966;SDS011;18496;52.042;6.812;2022-09-09T07:03:19;5.75;;;2.00;;
31966;SDS011;18496;52.042;6.812;2022-09-09T07:05:23;6.78;;;2.17;;
31966;SDS011;18496;52.042;6.812;2022-09-09T07:07:28;10.93;;;2.60;;
31966;SDS011;18496;52.042;6.812;2022-09-09T07:09:32;11.10;;;2.85;;
31966;SDS011;18496;52.042;6.812;2022-09-09T07:11:37;5.28;;;2.30;;
31966;SDS011;18496;52.042;6.812;2022-09-09T07:13:42;7.15;;;2.38;;
31966;SDS011;18496;52.042;6.812;2022-09-09T07:15:46;9.68;;;2.35;;
31966;SDS011;18496;52.042;6.812;2022-09-09T07:17:50;9.48;;;1.98;;
31966;SDS011;18496;52.042;6.812;2022-09-09T07:19:55;19.65;;;2.55;;
31966;SDS011;18496;52.042;6.812;2022-09-09T07:21:59;11.52;;;2.42;;
31966;SDS011;18496;52.042;6.812;2022-09-09T07:24:05;6.13;;;2.08;;
31966;SDS011;18496;52.042;6.812;2022-09-09T07:26:14;12.32;;;2.78;;
31966;SDS011;18496;52.042;6.812;2022-09-09T07:28:19;3.90;;;1.95;;
31966;SDS011;18496;52.042;6.812;2022-09-09T07:30:23;8.82;;;2.53;;
31966;SDS011;18496;52.042;6.812;2022-09-09T07:32:28;5.78;;;1.83;;
31966;SDS011;18496;52.042;6.812;2022-09-09T07:34:33;9.32;;;2.17;;
31966;SDS011;18496;52.042;6.812;2022-09-09T07:36:38;6.75;;;2.28;;
31966;SDS011;18496;52.042;6.812;2022-09-09T07:38:45;6.13;;;1.58;;
31966;SDS011;18496;52.042;6.812;2022-09-09T07:40:50;10.45;;;2.50;;
31966;SDS011;18496;52.042;6.812;2022-09-09T07:42:54;7.78;;;2.83;;
31966;SDS011;18496;52.042;6.812;2022-09-09T07:44:58;6.38;;;1.98;;
31966;SDS011;18496;52.042;6.812;2022-09-09T07:47:02;7.95;;;2.40;;
31966;SDS011;18496;52.042;6.812;2022-09-09T07:49:12;14.00;;;2.60;;
31966;SDS011;18496;52.042;6.812;2022-09-09T07:51:17;5.05;;;2.10;;
31966;SDS011;18496;52.042;6.812;2022-09-09T07:53:26;8.38;;;2.30;;
31966;SDS011;18496;52.042;6.812;2022-09-09T07:55:29;11.52;;;2.40;;
31966;SDS011;18496;52.042;6.812;2022-09-09T07:57:34;10.07;;;2.40;;
31966;SDS011;18496;52.042;6.812;2022-09-09T07:59:38;10.27;;;2.78;;
31966;SDS011;18496;52.042;6.812;2022-09-09T08:01:43;7.20;;;2.20;;
31966;SDS011;18496;52.042;6.812;2022-09-09T08:03:56;6.70;;;2.08;;
31966;SDS011;18496;52.042;6.812;2022-09-09T08:06:06;10.98;;;2.50;;
31966;SDS011;18496;52.042;6.812;2022-09-09T08:08:11;10.07;;;2.33;;
31966;SDS011;18496;52.042;6.812;2022-09-09T08:10:15;6.22;;;2.50;;
31966;SDS011;18496;52.042;6.812;2022-09-09T08:12:21;7.75;;;1.70;;
31966;SDS011;18496;52.042;6.812;2022-09-09T08:14:27;10.52;;;2.40;;
31966;SDS011;18496;52.042;6.812;2022-09-09T08:16:34;5.13;;;2.03;;
31966;SDS011;18496;52.042;6.812;2022-09-09T08:18:40;7.50;;;2.42;;
31966;SDS011;18496;52.042;6.812;2022-09-09T08:20:44;6.65;;;2.55;;
31966;SDS011;18496;52.042;6.812;2022-09-09T08:22:48;14.68;;;2.63;;
31966;SDS011;18496;52.042;6.812;2022-09-09T08:24:53;7.68;;;2.38;;
31966;SDS011;18496;52.042;6.812;2022-09-09T08:26:56;7.63;;;2.10;;
31966;SDS011;18496;52.042;6.812;2022-09-09T08:29:02;5.97;;;1.83;;
31966;SDS011;18496;52.042;6.812;2022-09-09T08:33:21;7.75;;;1.98;;
31966;SDS011;18496;52.042;6.812;2022-09-09T08:35:25;12.77;;;2.08;;
31966;SDS011;18496;52.042;6.812;2022-09-09T08:37:29;7.15;;;2.50;;
31966;SDS011;18496;52.042;6.812;2022-09-09T08:39:32;7.80;;;2.30;;
31966;SDS011;18496;52.042;6.812;2022-09-09T08:46:26;11.25;;;2.05;;
31966;SDS011;18496;52.042;6.812;2022-09-09T08:48:58;7.45;;;2.88;;
31966;SDS011;18496;52.042;6.812;2022-09-09T08:51:25;12.52;;;2.15;;
31966;SDS011;18496;52.042;6.812;2022-09-09T08:53:40;11.52;;;1.98;;
31966;SDS011;18496;52.042;6.812;2022-09-09T08:55:49;11.00;;;2.00;;
31966;SDS011;18496;52.042;6.812;2022-09-09T08:58:23;7.88;;;1.75;;
31966;SDS011;18496;52.042;6.812;2022-09-09T09:00:35;8.38;;;1.60;;
31966;SDS011;18496;52.042;6.812;2022-09-09T09:02:59;9.43;;;1.75;;
31966;SDS011;18496;52.042;6.812;2022-09-09T09:07:52;7.25;;;2.15;;
31966;SDS011;18496;52.042;6.812;2022-09-09T09:12:43;10.30;;;2.58;;
31966;SDS011;18496;52.042;6.812;2022-09-09T09:14:52;10.88;;;2.03;;
31966;SDS011;18496;52.042;6.812;2022-09-09T09:17:02;6.32;;;1.42;;
31966;SDS011;18496;52.042;6.812;2022-09-09T09:19:11;21.10;;;1.90;;
31966;SDS011;18496;52.042;6.812;2022-09-09T09:23:31;9.85;;;1.80;;
31966;SDS011;18496;52.042;6.812;2022-09-09T09:25:46;3.70;;;1.70;;
31966;SDS011;18496;52.042;6.812;2022-09-09T09:27:58;10.32;;;1.40;;
31966;SDS011;18496;52.042;6.812;2022-09-09T09:30:17;8.98;;;1.88;;
31966;SDS011;18496;52.042;6.812;2022-09-09T09:32:23;5.15;;;1.70;;
31966;SDS011;18496;52.042;6.812;2022-09-09T09:34:29;5.43;;;1.63;;
31966;SDS011;18496;52.042;6.812;2022-09-09T09:36:34;10.75;;;1.73;;
31966;SDS011;18496;52.042;6.812;2022-09-09T09:38:53;7.38;;;1.45;;
31966;SDS011;18496;52.042;6.812;2022-09-09T09:41:04;9.45;;;1.73;;
31966;SDS011;18496;52.042;6.812;2022-09-09T09:43:16;5.65;;;1.60;;
31966;SDS011;18496;52.042;6.812;2022-09-09T09:45:26;8.93;;;1.52;;
31966;SDS011;18496;52.042;6.812;2022-09-09T09:47:32;4.70;;;1.98;;
31966;SDS011;18496;52.042;6.812;2022-09-09T09:49:52;5.05;;;1.40;;
31966;SDS011;18496;52.042;6.812;2022-09-09T09:52:00;13.15;;;2.25;;
31966;SDS011;18496;52.042;6.812;2022-09-09T09:56:27;6.28;;;1.40;;
31966;SDS011;18496;52.042;6.812;2022-09-09T09:58:33;3.00;;;1.60;;
31966;SDS011;18496;52.042;6.812;2022-09-09T10:00:48;8.73;;;1.67;;
31966;SDS011;18496;52.042;6.812;2022-09-09T10:02:55;4.85;;;1.90;;
31966;SDS011;18496;52.042;6.812;2022-09-09T10:05:08;7.45;;;1.90;;
31966;SDS011;18496;52.042;6.812;2022-09-09T10:07:21;9.63;;;1.85;;
31966;SDS011;18496;52.042;6.812;2022-09-09T10:11:48;8.37;;;1.73;;
31966;SDS011;18496;52.042;6.812;2022-09-09T10:14:12;7.20;;;1.80;;
31966;SDS011;18496;52.042;6.812;2022-09-09T10:18:38;6.82;;;1.50;;
31966;SDS011;18496;52.042;6.812;2022-09-09T10:21:11;4.15;;;1.08;;
31966;SDS011;18496;52.042;6.812;2022-09-09T10:23:31;4.22;;;1.30;;
31966;SDS011;18496;52.042;6.812;2022-09-09T10:36:53;5.82;;;1.20;;
31966;SDS011;18496;52.042;6.812;2022-09-09T10:39:01;5.53;;;1.77;;
31966;SDS011;18496;52.042;6.812;2022-09-09T10:52:55;4.13;;;1.13;;
31966;SDS011;18496;52.042;6.812;2022-09-09T10:55:33;6.38;;;1.33;;
31966;SDS011;18496;52.042;6.812;2022-09-09T10:59:53;8.05;;;1.45;;
31966;SDS011;18496;52.042;6.812;2022-09-09T11:04:57;7.28;;;1.50;;
31966;SDS011;18496;52.042;6.812;2022-09-09T11:06:45;10.20;;;1.38;;
31966;SDS011;18496;52.042;6.812;2022-09-09T11:08:55;8.93;;;1.42;;
31966;SDS011;18496;52.042;6.812;2022-09-09T11:15:58;5.40;;;1.20;;
31966;SDS011;18496;52.042;6.812;2022-09-09T11:18:21;19.35;;;1.67;;
31966;SDS011;18496;52.042;6.812;2022-09-09T11:20:26;4.55;;;1.25;;
31966;SDS011;18496;52.042;6.812;2022-09-09T11:22:34;4.43;;;1.05;;
31966;SDS011;18496;52.042;6.812;2022-09-09T11:26:58;8.18;;;1.42;;
31966;SDS011;18496;52.042;6.812;2022-09-09T11:34:20;4.50;;;1.20;;
31966;SDS011;18496;52.042;6.812;2022-09-09T11:39:36;11.52;;;1.48;;
31966;SDS011;18496;52.042;6.812;2022-09-09T11:41:42;6.18;;;1.88;;
31966;SDS011;18496;52.042;6.812;2022-09-09T11:43:46;4.38;;;1.23;;
31966;SDS011;18496;52.042;6.812;2022-09-09T11:45:59;4.93;;;1.00;;
31966;SDS011;18496;52.042;6.812;2022-09-09T11:48:05;10.43;;;1.67;;
31966;SDS011;18496;52.042;6.812;2022-09-09T11:50:30;9.43;;;1.65;;
31966;SDS011;18496;52.042;6.812;2022-09-09T11:52:38;4.68;;;1.67;;
31966;SDS011;18496;52.042;6.812;2022-09-09T11:54:47;4.00;;;1.35;;
31966;SDS011;18496;52.042;6.812;2022-09-09T11:56:52;10.40;;;1.48;;
31966;SDS011;18496;52.042;6.812;2022-09-09T11:58:57;4.35;;;1.33;;
31966;SDS011;18496;52.042;6.812;2022-09-09T12:01:27;7.15;;;1.50;;
31966;SDS011;18496;52.042;6.812;2022-09-09T12:03:50;2.72;;;0.98;;
31966;SDS011;18496;52.042;6.812;2022-09-09T12:05:58;2.78;;;1.10;;
31966;SDS011;18496;52.042;6.812;2022-09-09T12:08:03;7.35;;;1.30;;
31966;SDS011;18496;52.042;6.812;2022-09-09T12:12:33;3.65;;;1.23;;
31966;SDS011;18496;52.042;6.812;2022-09-09T12:16:46;5.05;;;1.17;;
31966;SDS011;18496;52.042;6.812;2022-09-09T12:18:50;2.45;;;0.88;;
31966;SDS011;18496;52.042;6.812;2022-09-09T12:25:23;6.00;;;1.30;;
31966;SDS011;18496;52.042;6.812;2022-09-09T12:32:15;2.78;;;0.95;;
31966;SDS011;18496;52.042;6.812;2022-09-09T12:34:33;3.60;;;0.90;;
31966;SDS011;18496;52.042;6.812;2022-09-09T12:37:02;3.95;;;1.20;;
31966;SDS011;18496;52.042;6.812;2022-09-09T12:39:30;4.33;;;0.90;;
31966;SDS011;18496;52.042;6.812;2022-09-09T12:41:38;4.13;;;1.20;;
31966;SDS011;18496;52.042;6.812;2022-09-09T12:43:42;3.38;;;1.20;;
31966;SDS011;18496;52.042;6.812;2022-09-09T12:45:46;1.65;;;0.80;;
31966;SDS011;18496;52.042;6.812;2022-09-09T12:48:06;6.55;;;1.38;;
31966;SDS011;18496;52.042;6.812;2022-09-09T12:50:20;4.40;;;0.82;;
31966;SDS011;18496;52.042;6.812;2022-09-09T12:52:30;3.97;;;1.00;;
31966;SDS011;18496;52.042;6.812;2022-09-09T12:54:37;2.30;;;1.00;;
31966;SDS011;18496;52.042;6.812;2022-09-09T12:56:46;4.93;;;1.00;;
31966;SDS011;18496;52.042;6.812;2022-09-09T12:58:51;2.90;;;1.20;;
31966;SDS011;18496;52.042;6.812;2022-09-09T13:00:58;3.83;;;1.00;;
31966;SDS011;18496;52.042;6.812;2022-09-09T13:03:13;3.65;;;0.93;;
31966;SDS011;18496;52.042;6.812;2022-09-09T13:07:30;6.32;;;1.00;;
31966;SDS011;18496;52.042;6.812;2022-09-09T13:09:34;2.00;;;0.70;;
31966;SDS011;18496;52.042;6.812;2022-09-09T13:11:39;2.60;;;1.00;;
31966;SDS011;18496;52.042;6.812;2022-09-09T13:13:50;4.32;;;0.80;;
31966;SDS011;18496;52.042;6.812;2022-09-09T13:15:57;3.47;;;1.10;;
31966;SDS011;18496;52.042;6.812;2022-09-09T13:18:03;2.47;;;0.80;;
31966;SDS011;18496;52.042;6.812;2022-09-09T13:20:17;4.47;;;1.17;;
31966;SDS011;18496;52.042;6.812;2022-09-09T13:22:30;3.42;;;0.95;;
31966;SDS011;18496;52.042;6.812;2022-09-09T13:24:35;4.32;;;1.10;;
31966;SDS011;18496;52.042;6.812;2022-09-09T13:26:39;6.40;;;1.65;;
31966;SDS011;18496;52.042;6.812;2022-09-09T13:28:43;2.58;;;0.90;;
31966;SDS011;18496;52.042;6.812;2022-09-09T13:30:55;2.35;;;1.02;;
31966;SDS011;18496;52.042;6.812;2022-09-09T13:33:05;4.95;;;1.38;;
31966;SDS011;18496;52.042;6.812;2022-09-09T13:35:30;1.85;;;1.02;;
31966;SDS011;18496;52.042;6.812;2022-09-09T13:37:36;4.93;;;1.52;;
31966;SDS011;18496;52.042;6.812;2022-09-09T13:39:50;2.65;;;1.10;;
31966;SDS011;18496;52.042;6.812;2022-09-09T13:41:58;5.88;;;1.70;;
31966;SDS011;18496;52.042;6.812;2022-09-09T13:44:02;2.85;;;1.38;;
31966;SDS011;18496;52.042;6.812;2022-09-09T13:48:39;2.75;;;1.05;;
31966;SDS011;18496;52.042;6.812;2022-09-09T13:50:43;3.60;;;1.30;;
31966;SDS011;18496;52.042;6.812;2022-09-09T13:52:58;6.72;;;1.60;;
31966;SDS011;18496;52.042;6.812;2022-09-09T13:55:02;6.40;;;1.38;;
31966;SDS011;18496;52.042;6.812;2022-09-09T13:57:16;4.65;;;1.35;;
31966;SDS011;18496;52.042;6.812;2022-09-09T13:59:21;4.07;;;1.48;;
31966;SDS011;18496;52.042;6.812;2022-09-09T14:01:27;3.00;;;1.45;;
31966;SDS011;18496;52.042;6.812;2022-09-09T14:03:30;6.47;;;1.80;;
31966;SDS011;18496;52.042;6.812;2022-09-09T14:05:34;3.83;;;1.42;;
31966;SDS011;18496;52.042;6.812;2022-09-09T14:07:38;5.35;;;1.85;;
31966;SDS011;18496;52.042;6.812;2022-09-09T14:09:43;4.18;;;1.55;;
31966;SDS011;18496;52.042;6.812;2022-09-09T14:11:48;7.53;;;1.67;;
31966;SDS011;18496;52.042;6.812;2022-09-09T14:13:52;4.97;;;1.58;;
31966;SDS011;18496;52.042;6.812;2022-09-09T14:15:55;5.28;;;1.88;;
31966;SDS011;18496;52.042;6.812;2022-09-09T14:17:59;5.28;;;1.88;;
31966;SDS011;18496;52.042;6.812;2022-09-09T14:20:03;3.05;;;1.77;;
31966;SDS011;18496;52.042;6.812;2022-09-09T14:22:12;3.10;;;1.80;;
31966;SDS011;18496;52.042;6.812;2022-09-09T14:24:15;4.32;;;1.80;;
31966;SDS011;18496;52.042;6.812;2022-09-09T14:26:20;3.08;;;1.63;;
31966;SDS011;18496;52.042;6.812;2022-09-09T14:28:24;6.22;;;1.55;;
31966;SDS011;18496;52.042;6.812;2022-09-09T14:30:28;4.50;;;1.80;;
31966;SDS011;18496;52.042;6.812;2022-09-09T14:32:32;8.82;;;1.73;;
31966;SDS011;18496;52.042;6.812;2022-09-09T14:34:36;2.22;;;1.23;;
31966;SDS011;18496;52.042;6.812;2022-09-09T14:36:40;3.42;;;1.35;;
31966;SDS011;18496;52.042;6.812;2022-09-09T14:38:44;3.92;;;1.83;;
31966;SDS011;18496;52.042;6.812;2022-09-09T14:40:48;5.50;;;1.60;;
31966;SDS011;18496;52.042;6.812;2022-09-09T14:42:52;7.53;;;2.00;;
31966;SDS011;18496;52.042;6.812;2022-09-09T14:44:56;5.47;;;1.48;;
31966;SDS011;18496;52.042;6.812;2022-09-09T14:46:59;5.07;;;1.90;;
31966;SDS011;18496;52.042;6.812;2022-09-09T14:49:03;6.28;;;1.23;;
31966;SDS011;18496;52.042;6.812;2022-09-09T14:51:08;6.18;;;2.08;;
31966;SDS011;18496;52.042;6.812;2022-09-09T14:53:18;7.50;;;2.30;;